Time,TemperatureF,DewpointF,PressureIn,WindDirection,WindDirectionDegrees,WindSpeedMPH,WindSpeedGustMPH,Humidity,HourlyPrecipIn,Conditions,Clouds,dailyrainin,SoftwareType,DateUTC
2013-04-22 00:03:00,35.9,29.0,28.71,SSE,150,0.0,1.0,75,0.00,,,0.00,weatherlink.com 1.10,2013-04-22 04:03:00,
2013-04-22 00:18:00,35.7,29.0,28.71,SSE,167,0.0,1.0,75,0.00,,,0.00,weatherlink.com 1.10,2013-04-22 04:18:00,
2013-04-22 00:33:00,35.0,28.0,28.71,SSE,166,0.0,0.0,77,0.00,,,0.00,weatherlink.com 1.10,2013-04-22 04:33:00,
2013-04-22 00:48:00,34.2,28.0,28.71,SSE,166,0.0,1.0,79,0.00,,,0.00,weatherlink.com 1.10,2013-04-22 04:48:00,
2013-04-22 01:03:00,33.9,28.0,28.71,SSE,166,0.0,0.0,80,0.00,,,0.00,weatherlink.com 1.10,2013-04-22 05:03:00,
2013-04-22 01:18:00,33.2,29.0,28.71,SSE,167,0.0,0.0,83,0.00,,,0.00,weatherlink.com 1.10,2013-04-22 05:18:00,
2013-04-22 01:33:00,33.0,28.0,28.70,South,177,0.0,0.0,82,0.00,,,0.00,weatherlink.com 1.10,2013-04-22 05:33:00,
2013-04-22 01:48:00,32.4,28.0,28.70,South,177,0.0,1.0,83,0.00,,,0.00,weatherlink.com 1.10,2013-04-22 05:48:00,
2013-04-22 02:03:00,31.8,28.0,28.70,South,177,0.0,1.0,85,0.00,,,0.00,weatherlink.com 1.10,2013-04-22 06:03:00,
2013-04-22 02:18:00,31.7,28.0,28.70,South,177,0.0,1.0,86,0.00,,,0.00,weatherlink.com 1.10,2013-04-22 06:18:00,
2013-04-22 02:33:00,31.3,27.0,28.70,South,177,0.0,0.0,85,0.00,,,0.00,weatherlink.com 1.10,2013-04-22 06:33:00,
2013-04-22 02:48:00,31.1,27.0,28.70,South,178,0.0,1.0,86,0.00,,,0.00,weatherlink.com 1.10,2013-04-22 06:48:00,
2013-04-22 03:03:00,30.9,28.0,28.69,South,177,0.0,0.0,87,0.00,,,0.00,weatherlink.com 1.10,2013-04-22 07:03:00,
2013-04-22 03:18:00,30.7,27.0,28.69,South,177,0.0,1.0,87,0.00,,,0.00,weatherlink.com 1.10,2013-04-22 07:18:00,
2013-04-22 03:33:00,30.4,27.0,28.69,South,184,0.0,0.0,87,0.00,,,0.00,weatherlink.com 1.10,2013-04-22 07:33:00,
2013-04-22 03:48:00,30.0,27.0,28.69,South,185,0.0,1.0,88,0.00,,,0.00,weatherlink.com 1.10,2013-04-22 07:48:00,
2013-04-22 04:03:00,29.4,27.0,28.69,South,185,0.0,0.0,90,0.00,,,0.00,weatherlink.com 1.10,2013-04-22 08:03:00,
2013-04-22 04:18:00,29.2,27.0,28.69,South,185,0.0,1.0,90,0.00,,,0.00,weatherlink.com 1.10,2013-04-22 08:18:00,
2013-04-22 04:33:00,28.9,26.0,28.69,South,185,0.0,1.0,90,0.00,,,0.00,weatherlink.com 1.10,2013-04-22 08:33:00,
2013-04-22 04:48:00,29.1,27.0,28.68,South,184,0.0,0.0,90,0.00,,,0.00,weatherlink.com 1.10,2013-04-22 08:48:00,
2013-04-22 05:03:00,28.8,26.0,28.69,South,185,0.0,1.0,90,0.00,,,0.00,weatherlink.com 1.10,2013-04-22 09:03:00,
2013-04-22 05:18:00,28.5,26.0,28.69,South,184,0.0,0.0,90,0.00,,,0.00,weatherlink.com 1.10,2013-04-22 09:18:00,
2013-04-22 05:33:00,28.4,26.0,28.69,South,181,0.0,1.0,91,0.00,,,0.00,weatherlink.com 1.10,2013-04-22 09:33:00,
2013-04-22 05:48:00,28.5,26.0,28.69,South,181,0.0,1.0,91,0.00,,,0.00,weatherlink.com 1.10,2013-04-22 09:48:00,
2013-04-22 06:03:00,28.5,26.0,28.69,South,181,0.0,1.0,91,0.00,,,0.00,weatherlink.com 1.10,2013-04-22 10:03:00,
2013-04-22 06:18:00,28.3,26.0,28.69,South,181,0.0,1.0,91,0.00,,,0.00,weatherlink.com 1.10,2013-04-22 10:18:00,
2013-04-22 06:33:00,28.0,26.0,28.69,South,181,0.0,0.0,91,0.00,,,0.00,weatherlink.com 1.10,2013-04-22 10:33:00,
2013-04-22 06:48:00,27.4,25.0,28.70,South,181,0.0,0.0,91,0.00,,,0.00,weatherlink.com 1.10,2013-04-22 10:48:00,
2013-04-22 07:03:00,27.5,26.0,28.70,South,181,0.0,1.0,93,0.00,,,0.00,weatherlink.com 1.10,2013-04-22 11:03:00,
2013-04-22 07:18:00,27.5,26.0,28.70,South,181,0.0,1.0,93,0.00,,,0.00,weatherlink.com 1.10,2013-04-22 11:18:00,
2013-04-22 07:33:00,27.4,26.0,28.70,South,181,0.0,0.0,93,0.00,,,0.00,weatherlink.com 1.10,2013-04-22 11:33:00,
2013-04-22 07:48:00,28.5,27.0,28.70,South,181,0.0,0.0,95,0.00,,,0.00,weatherlink.com 1.10,2013-04-22 11:48:00,
2013-04-22 08:03:00,30.1,29.0,28.70,South,181,0.0,0.0,95,0.00,,,0.00,weatherlink.com 1.10,2013-04-22 12:03:00,
2013-04-22 08:18:00,31.9,30.0,28.70,SSE,159,0.0,1.0,93,0.00,,,0.00,weatherlink.com 1.10,2013-04-22 12:18:00,
2013-04-22 08:33:00,33.9,31.0,28.70,SSE,159,0.0,0.0,87,0.00,,,0.00,weatherlink.com 1.10,2013-04-22 12:33:00,
2013-04-22 08:48:00,35.7,31.0,28.70,NE,41,2.0,3.0,83,0.00,,,0.00,weatherlink.com 1.10,2013-04-22 12:48:00,
2013-04-22 09:03:00,37.0,31.0,28.70,East,89,1.0,2.0,78,0.00,,,0.00,weatherlink.com 1.10,2013-04-22 13:03:00,
2013-04-22 09:18:00,39.2,32.0,28.70,North,9,0.0,2.0,74,0.00,,,0.00,weatherlink.com 1.10,2013-04-22 13:18:00,
2013-04-22 09:33:00,41.8,32.0,28.70,East,79,1.0,3.0,69,0.00,,,0.00,weatherlink.com 1.10,2013-04-22 13:33:00,
2013-04-22 09:48:00,45.4,33.0,28.69,SE,134,0.0,3.0,62,0.00,,,0.00,weatherlink.com 1.10,2013-04-22 13:48:00,
2013-04-22 10:03:00,47.0,30.0,28.69,South,176,0.0,9.0,51,0.00,,,0.00,weatherlink.com 1.10,2013-04-22 14:03:00,
2013-04-22 10:19:00,47.5,32.0,28.68,South,172,1.0,10.0,55,0.00,,,0.00,weatherlink.com 1.10,2013-04-22 14:19:00,
2013-04-22 10:34:00,47.7,29.0,28.68,SSE,162,1.0,9.0,49,0.00,,,0.00,weatherlink.com 1.10,2013-04-22 14:34:00,
2013-04-22 10:49:00,48.8,30.0,28.67,South,177,4.0,9.0,48,0.00,,,0.00,weatherlink.com 1.10,2013-04-22 14:49:00,
2013-04-22 11:04:00,49.6,29.0,28.67,SE,136,4.0,9.0,46,0.00,,,0.00,weatherlink.com 1.10,2013-04-22 15:04:00,
2013-04-22 11:19:00,50.8,30.0,28.66,South,169,0.0,7.0,45,0.00,,,0.00,weatherlink.com 1.10,2013-04-22 15:19:00,
2013-04-22 11:34:00,51.8,30.0,28.67,SW,231,4.0,5.0,44,0.00,,,0.00,weatherlink.com 1.10,2013-04-22 15:34:00,
2013-04-22 11:49:00,52.9,30.0,28.65,South,191,0.0,6.0,42,0.00,,,0.00,weatherlink.com 1.10,2013-04-22 15:49:00,
2013-04-22 12:04:00,53.2,32.0,28.65,SW,224,0.0,6.0,44,0.00,,,0.00,weatherlink.com 1.10,2013-04-22 16:04:00,
2013-04-22 12:19:00,52.6,27.0,28.64,NNE,33,1.0,9.0,37,0.00,,,0.00,weatherlink.com 1.10,2013-04-22 16:19:00,
2013-04-22 12:34:00,53.7,30.0,28.64,SSW,197,3.0,9.0,40,0.00,,,0.00,weatherlink.com 1.10,2013-04-22 16:34:00,
2013-04-22 12:49:00,54.2,28.0,28.63,SSW,195,7.0,12.0,37,0.00,,,0.00,weatherlink.com 1.10,2013-04-22 16:49:00,
2013-04-22 13:04:00,55.3,31.0,28.61,South,186,2.0,10.0,39,0.00,,,0.00,weatherlink.com 1.10,2013-04-22 17:04:00,
2013-04-22 13:19:00,55.3,30.0,28.60,South,184,7.0,13.0,38,0.00,,,0.00,weatherlink.com 1.10,2013-04-22 17:19:00,
2013-04-22 13:34:00,55.9,31.0,28.60,South,184,2.0,10.0,39,0.00,,,0.00,weatherlink.com 1.10,2013-04-22 17:34:00,
2013-04-22 13:49:00,56.3,26.0,28.59,SSE,150,3.0,8.0,31,0.00,,,0.00,weatherlink.com 1.10,2013-04-22 17:49:00,
2013-04-22 14:04:00,56.6,28.0,28.59,SSW,193,1.0,11.0,33,0.00,,,0.00,weatherlink.com 1.10,2013-04-22 18:04:00,
2013-04-22 14:19:00,57.3,26.0,28.58,South,191,8.0,12.0,30,0.00,,,0.00,weatherlink.com 1.10,2013-04-22 18:19:00,
2013-04-22 14:34:00,57.3,24.0,28.58,South,170,7.0,10.0,28,0.00,,,0.00,weatherlink.com 1.10,2013-04-22 18:34:00,
2013-04-22 14:49:00,57.6,28.0,28.57,SSW,197,3.0,15.0,32,0.00,,,0.00,weatherlink.com 1.10,2013-04-22 18:49:00,
2013-04-22 15:04:00,58.8,26.0,28.56,SW,225,3.0,9.0,28,0.00,,,0.00,weatherlink.com 1.10,2013-04-22 19:04:00,
2013-04-22 15:19:00,59.7,25.0,28.56,SSW,197,2.0,6.0,27,0.00,,,0.00,weatherlink.com 1.10,2013-04-22 19:19:00,
2013-04-22 15:34:00,58.4,26.0,28.55,SSW,194,11.0,13.0,29,0.00,,,0.00,weatherlink.com 1.10,2013-04-22 19:34:00,
2013-04-22 15:49:00,58.3,27.0,28.55,South,188,1.0,6.0,30,0.00,,,0.00,weatherlink.com 1.10,2013-04-22 19:49:00,
2013-04-22 16:04:00,59.1,23.0,28.54,SSW,201,6.0,10.0,25,0.00,,,0.00,weatherlink.com 1.10,2013-04-22 20:04:00,
2013-04-22 16:19:00,58.6,25.0,28.53,South,184,9.0,9.0,28,0.00,,,0.00,weatherlink.com 1.10,2013-04-22 20:19:00,
2013-04-22 16:34:00,58.2,29.0,28.53,SSE,167,1.0,12.0,33,0.00,,,0.00,weatherlink.com 1.10,2013-04-22 20:34:00,
2013-04-22 16:49:00,57.9,25.0,28.52,South,183,1.0,9.0,28,0.00,,,0.00,weatherlink.com 1.10,2013-04-22 20:49:00,
2013-04-22 17:05:00,57.5,23.0,28.52,South,186,10.0,10.0,26,0.00,,,0.00,weatherlink.com 1.10,2013-04-22 21:05:00,
2013-04-22 17:19:00,57.1,23.0,28.52,SSE,147,2.0,10.0,27,0.00,,,0.00,weatherlink.com 1.10,2013-04-22 21:19:00,
2013-04-22 17:34:00,57.6,25.0,28.52,SE,124,2.0,9.0,29,0.00,,,0.00,weatherlink.com 1.10,2013-04-22 21:34:00,
2013-04-22 17:49:00,56.7,21.0,28.52,South,188,2.0,10.0,25,0.00,,,0.00,weatherlink.com 1.10,2013-04-22 21:49:00,
2013-04-22 18:05:00,55.6,24.0,28.52,South,184,2.0,9.0,30,0.00,,,0.00,weatherlink.com 1.10,2013-04-22 22:05:00,
2013-04-22 18:20:00,54.9,26.0,28.52,South,184,4.0,10.0,33,0.00,,,0.00,weatherlink.com 1.10,2013-04-22 22:20:00,
2013-04-22 18:35:00,54.1,28.0,28.52,East,97,2.0,11.0,37,0.00,,,0.00,weatherlink.com 1.10,2013-04-22 22:35:00,
2013-04-22 18:50:00,53.6,28.0,28.52,SSW,193,1.0,8.0,37,0.00,,,0.00,weatherlink.com 1.10,2013-04-22 22:50:00,
2013-04-22 19:05:00,52.9,28.0,28.52,South,183,0.0,10.0,38,0.00,,,0.00,weatherlink.com 1.10,2013-04-22 23:05:00,
2013-04-22 19:20:00,52.3,28.0,28.52,South,172,2.0,7.0,40,0.00,,,0.00,weatherlink.com 1.10,2013-04-22 23:20:00,
2013-04-22 19:35:00,51.7,28.0,28.53,SSW,197,0.0,6.0,41,0.00,,,0.00,weatherlink.com 1.10,2013-04-22 23:35:00,
2013-04-22 19:50:00,51.0,30.0,28.53,South,177,0.0,7.0,44,0.00,,,0.00,weatherlink.com 1.10,2013-04-22 23:50:00,
2013-04-22 20:05:00,50.2,29.0,28.53,South,183,1.0,3.0,44,0.00,,,0.00,weatherlink.com 1.10,2013-04-23 00:05:00,
2013-04-22 20:20:00,50.0,30.0,28.53,South,175,0.0,3.0,46,0.00,,,0.00,weatherlink.com 1.10,2013-04-23 00:20:00,
2013-04-22 20:35:00,48.7,30.0,28.54,South,188,0.0,5.0,49,0.00,,,0.00,weatherlink.com 1.10,2013-04-23 00:35:00,
2013-04-22 20:50:00,47.9,31.0,28.54,South,179,0.0,2.0,52,0.00,,,0.00,weatherlink.com 1.10,2013-04-23 00:50:00,
2013-04-22 21:05:00,45.3,32.0,28.55,South,179,0.0,0.0,59,0.00,,,0.00,weatherlink.com 1.10,2013-04-23 01:05:00,
2013-04-22 21:20:00,43.3,32.0,28.55,South,179,0.0,1.0,64,0.00,,,0.00,weatherlink.com 1.10,2013-04-23 01:20:00,
2013-04-22 21:35:00,42.0,32.0,28.55,South,177,0.0,1.0,67,0.00,,,0.00,weatherlink.com 1.10,2013-04-23 01:35:00,
2013-04-22 21:50:00,40.9,32.0,28.56,SSE,167,0.0,1.0,71,0.00,,,0.00,weatherlink.com 1.10,2013-04-23 01:50:00,
2013-04-22 22:05:00,39.5,32.0,28.57,SSE,162,0.0,1.0,74,0.00,,,0.00,weatherlink.com 1.10,2013-04-23 02:05:00,
2013-04-22 22:20:00,39.1,32.0,28.57,SSE,162,0.0,1.0,76,0.00,,,0.00,weatherlink.com 1.10,2013-04-23 02:20:00,
2013-04-22 22:35:00,39.1,32.0,28.56,SSE,162,0.0,1.0,75,0.00,,,0.00,weatherlink.com 1.10,2013-04-23 02:35:00,
2013-04-22 22:50:00,38.8,32.0,28.56,ESE,109,0.0,1.0,75,0.00,,,0.00,weatherlink.com 1.10,2013-04-23 02:50:00,
2013-04-22 23:05:00,38.5,32.0,28.56,South,187,0.0,1.0,77,0.00,,,0.00,weatherlink.com 1.10,2013-04-23 03:05:00,
2013-04-22 23:21:00,37.6,32.0,28.56,South,188,0.0,0.0,79,0.00,,,0.00,weatherlink.com 1.10,2013-04-23 03:21:00,
2013-04-22 23:36:00,37.3,31.0,28.55,South,174,0.0,1.0,79,0.00,,,0.00,weatherlink.com 1.10,2013-04-23 03:36:00,
2013-04-22 23:51:00,37.1,31.0,28.56,South,184,0.0,1.0,80,0.00,,,0.00,weatherlink.com 1.10,2013-04-23 03:51:00,